createdAt,value
2017-05-01T00:01:06.891Z,18.89
2017-05-01T00:02:19.201Z,18.82
2017-05-01T00:03:32.036Z,18.74
2017-05-01T00:04:44.844Z,18.76
2017-05-01T00:05:57.657Z,18.79
2017-05-01T00:07:09.974Z,18.76
2017-05-01T00:08:22.564Z,18.76
2017-05-01T00:09:35.365Z,18.79
2017-05-01T00:10:48.212Z,18.76
2017-05-01T00:12:01.031Z,18.86
2017-05-01T00:13:27.420Z,18.75
2017-05-01T00:14:40.208Z,18.84
2017-05-01T00:15:53.003Z,18.79
2017-05-01T00:17:05.802Z,18.75
2017-05-01T00:18:18.587Z,18.71
2017-05-01T00:19:31.368Z,18.64
2017-05-01T00:20:44.358Z,18.66
2017-05-01T00:21:57.144Z,18.62
2017-05-01T00:23:09.926Z,18.57
2017-05-01T00:24:22.230Z,18.56
2017-05-01T00:25:35.017Z,18.6
2017-05-01T00:26:47.806Z,18.57
2017-05-01T00:28:00.588Z,18.54
2017-05-01T00:29:13.386Z,18.64
2017-05-01T00:30:25.688Z,18.51
2017-05-01T00:31:38.470Z,18.53
2017-05-01T00:32:51.260Z,18.53
2017-05-01T00:34:04.043Z,18.6
2017-05-01T00:35:16.599Z,18.6
2017-05-01T00:36:29.389Z,18.64
2017-05-01T00:37:42.172Z,18.57
2017-05-01T00:38:54.959Z,18.6
2017-05-01T00:40:07.747Z,18.6
2017-05-01T00:41:20.566Z,18.54
2017-05-01T00:42:33.352Z,18.64
2017-05-01T00:43:46.136Z,18.64
2017-05-01T00:44:58.928Z,18.66
2017-05-01T00:46:12.015Z,18.69
2017-05-01T00:47:24.313Z,18.74
2017-05-01T00:48:37.094Z,18.65
2017-05-01T00:49:49.878Z,18.69
2017-05-01T00:51:02.663Z,18.68
2017-05-01T00:52:14.963Z,18.66
2017-05-01T00:53:27.748Z,18.68
2017-05-01T00:54:40.538Z,18.68
2017-05-01T00:55:53.322Z,18.78
2017-05-01T00:57:06.104Z,18.78
2017-05-01T00:58:18.409Z,18.82
2017-05-01T00:59:31.199Z,18.79
2017-05-01T01:00:43.998Z,18.76
2017-05-01T01:01:57.036Z,18.83
2017-05-01T01:03:09.822Z,18.89
2017-05-01T01:04:22.625Z,18.89
2017-05-01T01:05:35.409Z,18.82
2017-05-01T01:06:48.199Z,18.84
2017-05-01T01:08:00.993Z,18.84
2017-05-01T01:09:13.305Z,18.82
2017-05-01T01:10:26.094Z,18.87
2017-05-01T01:11:38.884Z,18.83
2017-05-01T01:12:51.923Z,18.89
2017-05-01T01:14:04.717Z,18.83
2017-05-01T01:15:17.510Z,18.79
2017-05-01T01:16:30.298Z,18.91
2017-05-01T01:17:43.095Z,18.82
2017-05-01T01:18:55.894Z,18.83
2017-05-01T01:20:08.697Z,18.86
2017-05-01T01:21:21.510Z,18.84
2017-05-01T01:22:34.297Z,18.82
2017-05-01T01:23:47.081Z,18.87
2017-05-01T01:24:59.395Z,18.86
2017-05-01T01:26:12.179Z,18.86
2017-05-01T01:27:24.967Z,18.89
2017-05-01T01:28:37.763Z,18.84
2017-05-01T01:29:50.805Z,18.89
2017-05-01T01:31:03.593Z,18.89
2017-05-01T01:32:16.393Z,18.89
2017-05-01T01:33:29.188Z,18.91
2017-05-01T01:34:44.788Z,18.93
2017-05-01T01:35:57.591Z,18.93
2017-05-01T01:37:10.386Z,18.89
2017-05-01T01:38:22.716Z,18.87
2017-05-01T01:39:35.508Z,18.83
2017-05-01T01:40:48.312Z,18.91
2017-05-01T01:42:01.110Z,18.9
2017-05-01T01:43:13.906Z,18.84
2017-05-01T01:44:26.701Z,18.83
2017-05-01T01:45:39.493Z,18.76
2017-05-01T01:46:52.286Z,18.76
2017-05-01T01:48:05.087Z,18.79
2017-05-01T01:49:16.920Z,18.78
2017-05-01T01:50:29.723Z,18.86
2017-05-01T01:51:42.761Z,18.91
2017-05-01T01:52:55.551Z,18.78
2017-05-01T01:54:08.349Z,18.83
2017-05-01T01:55:20.663Z,18.76
2017-05-01T01:56:33.716Z,18.79
2017-05-01T01:57:46.524Z,18.74
2017-05-01T01:58:59.348Z,18.78
2017-05-01T02:00:12.971Z,18.75
2017-05-01T02:01:25.821Z,18.72
2017-05-01T02:02:38.879Z,18.68
2017-05-01T02:03:51.690Z,18.69
2017-05-01T02:05:04.501Z,18.71
2017-05-01T02:06:17.318Z,18.59
2017-05-01T02:07:29.656Z,18.66
2017-05-01T02:08:42.489Z,18.64
2017-05-01T02:09:55.315Z,18.64
2017-05-01T02:11:08.147Z,18.69
2017-05-01T02:12:20.965Z,18.69
2017-05-01T02:13:34.056Z,18.69
2017-05-01T02:14:46.889Z,18.68
2017-05-01T02:15:59.726Z,18.65
2017-05-01T02:17:12.549Z,18.6
2017-05-01T02:18:25.612Z,18.62
2017-05-01T02:19:38.442Z,18.53
2017-05-01T02:20:51.252Z,18.56
2017-05-01T02:22:03.570Z,18.51
2017-05-01T02:23:15.894Z,18.57
2017-05-01T02:24:28.734Z,18.54
2017-05-01T02:25:41.537Z,18.5
2017-05-01T02:26:54.363Z,18.5
2017-05-01T02:28:07.166Z,18.46
2017-05-01T02:29:19.969Z,18.49
2017-05-01T02:30:32.778Z,18.41
2017-05-01T02:31:45.581Z,18.53
2017-05-01T02:32:58.377Z,18.41
2017-05-01T02:34:11.176Z,18.38
2017-05-01T02:35:23.962Z,18.39
2017-05-01T02:36:36.760Z,18.39
2017-05-01T02:37:49.553Z,18.41
2017-05-01T02:39:02.355Z,18.38
2017-05-01T02:40:14.673Z,18.47
2017-05-01T02:41:27.473Z,18.42
2017-05-01T02:42:40.262Z,18.35
2017-05-01T02:43:53.056Z,18.39
2017-05-01T02:45:05.866Z,18.38
2017-05-01T02:46:17.953Z,18.54
2017-05-01T02:47:30.747Z,18.46
2017-05-01T02:48:43.559Z,18.44
2017-05-01T02:49:56.364Z,18.49
2017-05-01T02:51:09.178Z,18.51
2017-05-01T02:52:21.985Z,18.39
2017-05-01T02:53:34.786Z,18.47
2017-05-01T02:54:47.588Z,18.46
2017-05-01T02:56:00.383Z,18.41
2017-05-01T02:57:13.189Z,18.39
2017-05-01T02:58:25.515Z,18.38
2017-05-01T02:59:37.828Z,18.36
2017-05-01T03:00:50.637Z,18.35
2017-05-01T03:02:03.443Z,18.38
2017-05-01T03:03:15.756Z,18.38
2017-05-01T03:04:28.553Z,18.38
2017-05-01T03:05:41.348Z,18.31
2017-05-01T03:06:53.682Z,18.35
2017-05-01T03:08:06.480Z,18.32
2017-05-01T03:09:19.298Z,18.35
2017-05-01T03:10:32.107Z,18.35
2017-05-01T03:11:44.918Z,18.34
2017-05-01T03:12:57.970Z,18.34
2017-05-01T03:14:10.833Z,18.23
2017-05-01T03:15:23.641Z,18.29
2017-05-01T03:16:36.446Z,18.25
2017-05-01T03:17:49.267Z,18.35
2017-05-01T03:19:02.389Z,18.35
2017-05-01T03:20:14.231Z,18.26
2017-05-01T03:21:27.046Z,18.28
2017-05-01T03:22:39.853Z,18.35
2017-05-01T03:23:52.181Z,18.21
2017-05-01T03:25:05.018Z,18.32
2017-05-01T03:26:17.399Z,18.31
2017-05-01T03:27:29.740Z,18.23
2017-05-01T03:28:42.063Z,18.23
2017-05-01T03:29:55.118Z,18.2
2017-05-01T03:31:07.946Z,18.21
2017-05-01T03:32:20.753Z,18.13
2017-05-01T03:33:33.561Z,18.16
2017-05-01T03:34:46.382Z,18.21
2017-05-01T03:35:59.195Z,18.16
2017-05-01T03:37:12.000Z,18.02
2017-05-01T03:38:24.841Z,18.13
2017-05-01T03:39:37.667Z,18.13
2017-05-01T03:40:50.483Z,18.09
2017-05-01T03:42:03.318Z,18.09
2017-05-01T03:43:16.133Z,17.98
2017-05-01T03:44:28.938Z,17.98
2017-05-01T03:45:41.548Z,17.96
2017-05-01T03:46:54.348Z,18.01
2017-05-01T03:48:07.144Z,17.96
2017-05-01T03:49:19.953Z,17.89
2017-05-01T03:50:32.757Z,17.84
2017-05-01T03:51:45.551Z,17.91
2017-05-01T03:52:57.866Z,17.92
2017-05-01T03:54:10.669Z,17.99
2017-05-01T03:55:22.496Z,18.04
2017-05-01T03:56:35.551Z,18.01
2017-05-01T03:57:48.383Z,17.86
2017-05-01T03:59:01.195Z,17.98
2017-05-01T04:00:13.513Z,17.87
2017-05-01T04:01:26.318Z,17.87
2017-05-01T04:02:53.185Z,17.92
2017-05-01T04:04:05.984Z,17.87
2017-05-01T04:05:18.306Z,17.84
2017-05-01T04:06:31.097Z,17.8
2017-05-01T04:07:44.198Z,17.84
2017-05-01T04:08:56.513Z,17.86
2017-05-01T04:10:09.302Z,17.77
2017-05-01T04:11:21.627Z,17.95
2017-05-01T04:12:34.420Z,17.84
2017-05-01T04:13:46.735Z,17.86
2017-05-01T04:14:59.570Z,17.95
2017-05-01T04:16:12.366Z,17.84
2017-05-01T04:17:25.164Z,17.84
2017-05-01T04:18:38.209Z,17.87
2017-05-01T04:19:51.009Z,17.96
2017-05-01T04:21:03.817Z,17.96
2017-05-01T04:22:16.612Z,17.86
2017-05-01T04:23:29.708Z,17.87
2017-05-01T04:24:42.499Z,17.87
2017-05-01T04:25:55.291Z,17.91
2017-05-01T04:27:08.080Z,17.84
2017-05-01T04:28:20.389Z,17.91
2017-05-01T04:29:33.433Z,17.87
2017-05-01T04:30:46.225Z,17.94
2017-05-01T04:31:59.015Z,17.87
2017-05-01T04:33:11.809Z,17.95
2017-05-01T04:34:24.861Z,17.87
2017-05-01T04:35:37.655Z,17.87
2017-05-01T04:36:49.976Z,17.92
2017-05-01T04:38:02.772Z,17.94
2017-05-01T04:39:15.568Z,17.86
2017-05-01T04:40:28.382Z,17.96
2017-05-01T04:41:41.215Z,18.04
2017-05-01T04:42:54.001Z,17.91
2017-05-01T04:44:06.797Z,18.04
2017-05-01T04:45:19.894Z,17.96
2017-05-01T04:46:32.678Z,18.04
2017-05-01T04:47:45.464Z,18.04
2017-05-01T04:48:57.773Z,18.01
2017-05-01T04:50:10.565Z,18.01
2017-05-01T04:51:22.875Z,18.1
2017-05-01T04:52:35.660Z,18.04
2017-05-01T04:53:48.477Z,18.09
2017-05-01T04:55:01.275Z,18.09
2017-05-01T04:56:14.364Z,18.04
2017-05-01T04:57:26.666Z,18.1
2017-05-01T04:58:39.454Z,18.05
2017-05-01T04:59:52.248Z,18.11
2017-05-01T05:01:05.051Z,18.09
2017-05-01T05:02:17.655Z,18.01
2017-05-01T05:03:29.962Z,18.09
2017-05-01T05:04:42.280Z,18.11
2017-05-01T05:05:55.080Z,18.16
2017-05-01T05:07:08.126Z,18.16
2017-05-01T05:08:20.914Z,18.19
2017-05-01T05:09:33.711Z,18.23
2017-05-01T05:10:46.508Z,18.21
2017-05-01T05:11:59.302Z,18.2
2017-05-01T05:13:12.350Z,18.2
2017-05-01T05:14:25.184Z,18.2
2017-05-01T05:15:37.978Z,18.25
2017-05-01T05:16:50.294Z,18.23
2017-05-01T05:18:03.098Z,18.21
2017-05-01T05:19:15.895Z,18.23
2017-05-01T05:20:28.691Z,18.23
2017-05-01T05:21:41.484Z,18.28
2017-05-01T05:22:54.280Z,18.23
2017-05-01T05:24:07.068Z,18.23
2017-05-01T05:25:19.850Z,18.2
2017-05-01T05:26:31.673Z,18.21
2017-05-01T05:27:44.453Z,18.19
2017-05-01T05:28:57.538Z,18.25
2017-05-01T05:30:10.321Z,18.21
2017-05-01T05:31:22.623Z,18.26
2017-05-01T05:32:35.411Z,18.25
2017-05-01T05:33:48.200Z,18.36
2017-05-01T05:35:01.239Z,18.29
2017-05-01T05:36:14.023Z,18.29
2017-05-01T05:37:26.857Z,18.36
2017-05-01T05:38:39.641Z,18.36
2017-05-01T05:39:52.674Z,18.32
2017-05-01T05:41:05.457Z,18.38
2017-05-01T05:42:18.243Z,18.31
2017-05-01T05:43:31.028Z,18.38
2017-05-01T05:44:43.851Z,18.32
2017-05-01T05:45:56.635Z,18.39
2017-05-01T05:47:09.417Z,18.39
2017-05-01T05:48:21.718Z,18.21
2017-05-01T05:49:34.500Z,18.05
2017-05-01T05:50:47.282Z,18.1
2017-05-01T05:52:00.064Z,18.02
2017-05-01T05:53:12.844Z,18.07
2017-05-01T05:54:25.627Z,18.09
2017-05-01T05:55:38.411Z,18.07
2017-05-01T05:56:50.707Z,18.07
2017-05-01T05:58:03.487Z,18.16
2017-05-01T05:59:16.269Z,18.11
2017-05-01T06:00:29.060Z,18.16
2017-05-01T06:01:42.144Z,18.19
2017-05-01T06:02:54.966Z,18.17
2017-05-01T06:04:07.274Z,18.28
2017-05-01T06:05:20.078Z,18.25
2017-05-01T06:06:32.863Z,18.35
2017-05-01T06:07:45.693Z,18.2
2017-05-01T06:08:58.489Z,18.25
2017-05-01T06:10:11.280Z,18.23
2017-05-01T06:11:24.066Z,18.35
2017-05-01T06:12:37.162Z,18.34
2017-05-01T06:13:49.971Z,18.32
2017-05-01T06:15:02.760Z,18.32
2017-05-01T06:16:15.065Z,18.32
2017-05-01T06:17:27.859Z,18.29
2017-05-01T06:18:40.904Z,18.32
2017-05-01T06:19:53.691Z,18.26
2017-05-01T06:21:06.482Z,18.39
2017-05-01T06:22:18.790Z,18.32
2017-05-01T06:23:31.587Z,18.31
2017-05-01T06:24:44.383Z,18.28
2017-05-01T06:25:56.695Z,18.29
2017-05-01T06:27:09.008Z,18.34
2017-05-01T06:28:21.806Z,18.29
2017-05-01T06:29:34.595Z,18.36
2017-05-01T06:30:47.380Z,18.35
2017-05-01T06:32:00.167Z,18.35
2017-05-01T06:33:12.968Z,18.35
2017-05-01T06:34:25.763Z,18.34
2017-05-01T06:35:38.551Z,18.39
2017-05-01T06:36:51.358Z,18.26
2017-05-01T06:38:04.157Z,18.29
2017-05-01T06:39:16.960Z,18.36
2017-05-01T06:40:30.063Z,18.38
2017-05-01T06:41:42.857Z,18.25
2017-05-01T06:42:55.652Z,18.19
2017-05-01T06:44:08.451Z,18.16
2017-05-01T06:45:21.490Z,18.1
2017-05-01T06:46:34.275Z,18.07
2017-05-01T06:47:47.062Z,18.11
2017-05-01T06:48:59.866Z,18.1
2017-05-01T06:50:12.668Z,18.07
2017-05-01T06:51:24.981Z,18.01
2017-05-01T06:52:37.772Z,17.94
2017-05-01T06:53:50.070Z,17.96
2017-05-01T06:55:02.860Z,17.96
2017-05-01T06:56:15.160Z,17.91
2017-05-01T06:57:27.951Z,17.91
2017-05-01T06:58:40.737Z,17.92
2017-05-01T06:59:53.541Z,17.94
2017-05-01T07:01:06.320Z,18.05
2017-05-01T07:02:18.919Z,17.98
2017-05-01T07:03:31.704Z,17.91
2017-05-01T07:04:44.490Z,17.92
2017-05-01T07:05:57.271Z,17.96
2017-05-01T07:07:10.355Z,17.99
2017-05-01T07:08:23.146Z,17.81
2017-05-01T07:09:35.928Z,17.86
2017-05-01T07:10:48.706Z,17.83
2017-05-01T07:12:01.487Z,17.84
2017-05-01T07:13:14.568Z,17.81
2017-05-01T07:14:27.351Z,17.84
2017-05-01T07:15:40.148Z,17.81
2017-05-01T07:16:52.928Z,17.8
2017-05-01T07:18:05.227Z,17.86
2017-05-01T07:19:17.531Z,17.86
2017-05-01T07:20:30.314Z,17.83
2017-05-01T07:21:43.106Z,17.84
2017-05-01T07:22:55.411Z,17.76
2017-05-01T07:24:08.445Z,17.84
2017-05-01T07:25:21.243Z,17.83
2017-05-01T07:26:34.032Z,17.81
2017-05-01T07:27:46.814Z,17.84
2017-05-01T07:28:59.847Z,17.83
2017-05-01T07:30:12.627Z,17.73
2017-05-01T07:31:24.928Z,17.74
2017-05-01T07:32:37.707Z,17.68
2017-05-01T07:33:50.489Z,17.73
2017-05-01T07:35:03.518Z,17.74
2017-05-01T07:36:15.815Z,17.7
2017-05-01T07:37:28.594Z,17.7
2017-05-01T07:38:41.376Z,17.74
2017-05-01T07:39:54.170Z,17.73
2017-05-01T07:41:06.977Z,17.68
2017-05-01T07:42:19.777Z,17.76
2017-05-01T07:43:32.563Z,17.63
2017-05-01T07:44:45.354Z,17.6
2017-05-01T07:45:57.919Z,17.63
2017-05-01T07:47:10.700Z,17.6
2017-05-01T07:48:23.012Z,17.68
2017-05-01T07:49:35.797Z,17.58
2017-05-01T07:50:48.594Z,17.57
2017-05-01T07:52:01.384Z,17.54
2017-05-01T07:53:13.688Z,17.51
2017-05-01T07:54:26.484Z,17.51
2017-05-01T07:55:39.281Z,17.51
2017-05-01T07:56:52.075Z,17.53
2017-05-01T07:58:04.870Z,17.54
2017-05-01T07:59:17.181Z,17.53
2017-05-01T08:00:29.976Z,17.53
2017-05-01T08:01:42.535Z,17.53
2017-05-01T08:02:54.841Z,17.47
2017-05-01T08:04:07.632Z,17.54
2017-05-01T08:05:20.422Z,17.53
2017-05-01T08:06:33.215Z,17.51
2017-05-01T08:07:46.309Z,17.6
2017-05-01T08:08:58.617Z,17.62
2017-05-01T08:10:11.409Z,17.63
2017-05-01T08:11:24.227Z,17.54
2017-05-01T08:12:37.026Z,17.58
2017-05-01T08:13:49.336Z,17.58
2017-05-01T08:15:02.123Z,17.6
2017-05-01T08:16:14.916Z,17.65
2017-05-01T08:17:27.230Z,17.54
2017-05-01T08:18:40.011Z,17.6
2017-05-01T08:19:51.350Z,17.66
2017-05-01T08:21:03.657Z,17.68
2017-05-01T08:22:16.485Z,17.54
2017-05-01T08:23:29.095Z,17.6
2017-05-01T08:24:41.886Z,17.55
2017-05-01T08:25:54.667Z,17.66
2017-05-01T08:27:07.452Z,17.73
2017-05-01T08:28:20.237Z,17.63
2017-05-01T08:29:33.270Z,17.71
2017-05-01T08:30:46.056Z,17.71
2017-05-01T08:31:58.841Z,17.7
2017-05-01T08:33:11.621Z,17.73
2017-05-01T08:34:24.408Z,17.73
2017-05-01T08:35:37.191Z,17.7
2017-05-01T08:36:49.971Z,17.7
2017-05-01T08:38:01.795Z,17.71
2017-05-01T08:39:14.585Z,17.76
2017-05-01T08:40:27.666Z,17.81
2017-05-01T08:41:40.458Z,17.66
2017-05-01T08:42:53.241Z,17.76
2017-05-01T08:44:06.026Z,17.65
2017-05-01T08:45:18.582Z,17.58
2017-05-01T08:46:31.364Z,17.53
2017-05-01T08:47:44.149Z,17.46
2017-05-01T08:48:56.938Z,17.58
2017-05-01T08:50:09.241Z,17.6
2017-05-01T08:51:22.025Z,17.53
2017-05-01T08:52:34.807Z,17.43
2017-05-01T08:53:47.592Z,17.43
2017-05-01T08:55:00.373Z,17.28
2017-05-01T08:56:12.439Z,17.24
2017-05-01T08:57:25.219Z,17.36
2017-05-01T08:58:38.001Z,17.32
2017-05-01T08:59:49.824Z,17.27
2017-05-01T09:01:02.608Z,17.38
2017-05-01T09:02:15.393Z,17.32
2017-05-01T09:03:28.173Z,17.36
2017-05-01T09:04:40.471Z,17.24
2017-05-01T09:05:53.289Z,17.22
2017-05-01T09:07:06.069Z,17.18
2017-05-01T09:08:18.864Z,17.2
2017-05-01T09:09:31.177Z,17.25
2017-05-01T09:10:43.483Z,17.2
2017-05-01T09:11:56.281Z,17.18
2017-05-01T09:13:08.596Z,17.35
2017-05-01T09:14:20.906Z,17.38
2017-05-01T09:15:33.710Z,17.38
2017-05-01T09:16:46.496Z,17.45
2017-05-01T09:17:59.108Z,17.45
2017-05-01T09:19:11.904Z,17.46
2017-05-01T09:20:24.206Z,17.47
2017-05-01T09:21:36.995Z,17.4
2017-05-01T09:22:49.817Z,17.45
2017-05-01T09:24:02.624Z,17.47
2017-05-01T09:25:15.413Z,17.43
2017-05-01T09:26:28.214Z,17.47
2017-05-01T09:27:40.526Z,17.51
2017-05-01T09:28:53.567Z,17.45
2017-05-01T09:30:06.373Z,17.36
2017-05-01T09:31:18.684Z,17.3
2017-05-01T09:32:31.470Z,17.36
2017-05-01T09:33:43.787Z,17.36
2017-05-01T09:34:56.879Z,17.33
2017-05-01T09:36:09.185Z,17.4
2017-05-01T09:37:21.973Z,17.43
2017-05-01T09:38:34.282Z,17.36
2017-05-01T09:39:46.591Z,17.46
2017-05-01T09:40:59.375Z,17.39
2017-05-01T09:42:11.678Z,17.45
2017-05-01T09:43:24.521Z,17.53
2017-05-01T09:44:37.316Z,17.45
2017-05-01T09:45:50.122Z,17.46
2017-05-01T09:47:02.918Z,17.51
2017-05-01T09:48:15.723Z,17.51
2017-05-01T09:49:28.521Z,17.49
2017-05-01T09:50:41.129Z,17.53
2017-05-01T09:51:53.433Z,17.45
2017-05-01T09:53:05.740Z,17.43
2017-05-01T09:54:18.532Z,17.43
2017-05-01T09:55:31.332Z,17.42
2017-05-01T09:56:43.637Z,17.45
2017-05-01T09:57:56.433Z,17.47
2017-05-01T09:59:09.226Z,17.4
2017-05-01T10:00:21.540Z,17.38
2017-05-01T10:01:34.582Z,17.35
2017-05-01T10:02:47.371Z,17.39
2017-05-01T10:04:00.174Z,17.39
2017-05-01T10:05:12.970Z,17.33
2017-05-01T10:06:25.275Z,17.33
2017-05-01T10:07:38.059Z,17.33
2017-05-01T10:08:50.851Z,17.4
2017-05-01T10:10:03.645Z,17.3
2017-05-01T10:11:15.469Z,17.32
2017-05-01T10:12:28.509Z,17.35
2017-05-01T10:13:41.350Z,17.35
2017-05-01T10:14:53.662Z,17.3
2017-05-01T10:16:05.994Z,17.35
2017-05-01T10:17:18.786Z,17.3
2017-05-01T10:18:31.867Z,17.35
2017-05-01T10:19:44.658Z,17.28
2017-05-01T10:20:57.450Z,17.32
2017-05-01T10:22:10.268Z,17.24
2017-05-01T10:23:22.573Z,17.33
2017-05-01T10:24:35.358Z,17.24
2017-05-01T10:25:48.153Z,17.3
2017-05-01T10:27:00.940Z,17.38
2017-05-01T10:28:13.241Z,17.36
2017-05-01T10:29:25.406Z,17.27
2017-05-01T10:30:37.715Z,17.35
2017-05-01T10:31:50.510Z,17.3
2017-05-01T10:33:02.336Z,17.28
2017-05-01T10:34:14.161Z,17.33
2017-05-01T10:35:26.959Z,17.25
2017-05-01T10:36:39.266Z,17.27
2017-05-01T10:37:52.053Z,17.35
2017-05-01T10:39:04.840Z,17.28
2017-05-01T10:40:16.919Z,17.35
2017-05-01T10:41:29.722Z,17.36
2017-05-01T10:42:42.033Z,17.36
2017-05-01T10:43:54.345Z,17.33
2017-05-01T10:45:07.446Z,17.42
2017-05-01T10:46:19.756Z,17.43
2017-05-01T10:47:32.548Z,17.4
2017-05-01T10:48:44.858Z,17.42
2017-05-01T10:49:57.647Z,17.46
2017-05-01T10:51:10.214Z,17.53
2017-05-01T10:52:22.523Z,17.49
2017-05-01T10:53:35.314Z,17.51
2017-05-01T10:54:48.105Z,17.53
2017-05-01T10:56:01.202Z,17.57
2017-05-01T10:57:13.517Z,17.63
2017-05-01T10:58:25.823Z,17.49
2017-05-01T10:59:37.651Z,17.43
2017-05-01T11:00:49.961Z,17.49
2017-05-01T11:02:02.757Z,17.55
2017-05-01T11:03:14.595Z,17.57
2017-05-01T11:04:26.907Z,17.58
2017-05-01T11:05:39.696Z,17.57
2017-05-01T11:06:52.793Z,17.68
2017-05-01T11:08:05.096Z,17.53
2017-05-01T11:09:17.898Z,17.63
2017-05-01T11:10:29.723Z,17.62
2017-05-01T11:11:42.034Z,17.62
2017-05-01T11:12:55.081Z,17.57
2017-05-01T11:14:07.390Z,17.6
2017-05-01T11:15:20.185Z,17.68
2017-05-01T11:16:32.981Z,17.7
2017-05-01T11:17:45.544Z,17.7
2017-05-01T11:18:58.334Z,17.86
2017-05-01T11:20:10.163Z,17.76
2017-05-01T11:21:22.951Z,17.8
2017-05-01T11:22:35.748Z,17.86
2017-05-01T11:23:48.051Z,17.86
2017-05-01T11:25:00.850Z,17.86
2017-05-01T11:26:13.636Z,17.92
2017-05-01T11:27:26.429Z,17.94
2017-05-01T11:28:38.739Z,18.01
2017-05-01T11:29:51.521Z,18.09
2017-05-01T11:31:03.833Z,18.16
2017-05-01T11:32:16.630Z,18.19
2017-05-01T11:33:29.423Z,18.28
2017-05-01T11:34:42.464Z,18.36
2017-05-01T11:35:55.254Z,18.38
2017-05-01T11:37:07.558Z,18.46
2017-05-01T11:38:19.872Z,18.51
2017-05-01T11:39:32.665Z,18.87
2017-05-01T11:40:44.968Z,19.13
2017-05-01T11:41:57.762Z,19.15
2017-05-01T11:43:09.598Z,19.2
2017-05-01T11:44:21.904Z,19.31
2017-05-01T11:45:34.209Z,19.35
2017-05-01T11:46:46.553Z,19.47
2017-05-01T11:47:59.341Z,19.6
2017-05-01T11:49:12.140Z,19.65
2017-05-01T11:50:25.236Z,19.71
2017-05-01T11:51:38.018Z,19.8
2017-05-01T11:52:50.812Z,19.97
2017-05-01T11:54:03.123Z,20.08
2017-05-01T11:55:15.912Z,20.25
2017-05-01T11:56:28.461Z,20.33
2017-05-01T11:57:41.281Z,20.34
2017-05-01T11:58:54.087Z,20.53
2017-05-01T12:00:06.883Z,20.64
2017-05-01T12:01:19.188Z,20.76
2017-05-01T12:02:31.985Z,20.88
2017-05-01T12:03:44.302Z,21.05
2017-05-01T12:04:57.104Z,21.19
2017-05-01T12:06:09.897Z,21.33
2017-05-01T12:07:22.683Z,21.38
2017-05-01T12:08:35.485Z,21.34
2017-05-01T12:09:48.286Z,21.43
2017-05-01T12:11:01.079Z,21.51
2017-05-01T12:12:13.870Z,21.53
2017-05-01T12:13:26.700Z,21.55
2017-05-01T12:14:39.015Z,21.66
2017-05-01T12:15:51.807Z,21.77
2017-05-01T12:17:04.127Z,21.86
2017-05-01T12:18:16.442Z,21.94
2017-05-01T12:19:29.247Z,22.02
2017-05-01T12:20:42.068Z,22.2
2017-05-01T12:21:54.857Z,22.33
2017-05-01T12:23:07.165Z,22.29
2017-05-01T12:24:19.969Z,22.19
2017-05-01T12:25:32.759Z,22.26
2017-05-01T12:26:45.063Z,22.41
2017-05-01T12:27:57.853Z,22.42
2017-05-01T12:29:10.412Z,22.54
2017-05-01T12:30:23.217Z,22.61
2017-05-01T12:31:36.004Z,22.78
2017-05-01T12:32:48.799Z,22.88
2017-05-01T12:34:01.157Z,22.93
2017-05-01T12:35:13.470Z,23.01
2017-05-01T12:36:26.264Z,23.12
2017-05-01T12:37:39.057Z,23.26
2017-05-01T12:38:51.855Z,23.14
2017-05-01T12:40:04.652Z,23.22
2017-05-01T12:41:16.969Z,23.39
2017-05-01T12:42:29.755Z,23.41
2017-05-01T12:43:42.549Z,23.47
2017-05-01T12:44:55.606Z,23.45
2017-05-01T12:46:07.920Z,23.35
2017-05-01T12:47:20.711Z,23.35
2017-05-01T12:48:33.508Z,23.35
2017-05-01T12:49:46.313Z,23.41
2017-05-01T12:50:59.108Z,23.26
2017-05-01T12:52:11.926Z,23.21
2017-05-01T12:53:24.236Z,23.19
2017-05-01T12:54:37.038Z,23.22
2017-05-01T12:55:49.657Z,23.18
2017-05-01T12:57:02.446Z,23.19
2017-05-01T12:58:14.277Z,23.34
2017-05-01T12:59:26.590Z,23.47
2017-05-01T13:00:39.387Z,23.45
2017-05-01T13:01:52.190Z,23.52
2017-05-01T13:03:04.992Z,23.64
2017-05-01T13:04:17.344Z,23.75
2017-05-01T13:05:29.658Z,23.82
2017-05-01T13:06:42.751Z,23.84
2017-05-01T13:07:55.076Z,23.92
2017-05-01T13:09:07.397Z,23.94
2017-05-01T13:10:19.710Z,24.02
2017-05-01T13:11:32.024Z,24.09
2017-05-01T13:12:45.081Z,24
2017-05-01T13:13:57.885Z,24.02
2017-05-01T13:15:10.691Z,24.04
2017-05-01T13:16:22.999Z,24.15
2017-05-01T13:17:36.048Z,24.18
2017-05-01T13:18:48.852Z,24.14
2017-05-01T13:20:01.657Z,23.89
2017-05-01T13:21:13.480Z,24.05
2017-05-01T13:22:26.274Z,23.96
2017-05-01T13:23:38.594Z,24.05
2017-05-01T13:24:51.398Z,24.11
2017-05-01T13:26:04.201Z,24.15
2017-05-01T13:27:16.515Z,24.14
2017-05-01T13:28:29.344Z,24.24
2017-05-01T13:29:42.158Z,24.19
2017-05-01T13:30:54.477Z,24.26
2017-05-01T13:32:07.283Z,24.27
2017-05-01T13:33:19.607Z,24.44
2017-05-01T13:34:32.415Z,24.64
2017-05-01T13:35:45.217Z,24.74
2017-05-01T13:36:58.027Z,24.52
2017-05-01T13:38:10.833Z,24.33
2017-05-01T13:39:23.166Z,24.34
2017-05-01T13:40:35.974Z,24.26
2017-05-01T13:41:48.773Z,24.33
2017-05-01T13:43:01.599Z,24.21
2017-05-01T13:44:14.391Z,24.19
2017-05-01T13:45:27.223Z,24.26
2017-05-01T13:46:40.022Z,24.26
2017-05-01T13:47:52.827Z,24.34
2017-05-01T13:49:05.641Z,24.44
2017-05-01T13:50:17.953Z,24.56
2017-05-01T13:51:30.748Z,24.66
2017-05-01T13:52:43.542Z,24.79
2017-05-01T13:53:55.856Z,24.75
2017-05-01T13:55:07.213Z,24.77
2017-05-01T13:56:20.257Z,24.93
2017-05-01T13:57:33.046Z,24.93
2017-05-01T13:58:45.831Z,24.92
2017-05-01T13:59:58.625Z,24.98
2017-05-01T14:01:10.453Z,25.16
2017-05-01T14:02:22.788Z,25.14
2017-05-01T14:03:35.110Z,25.12
2017-05-01T14:04:47.905Z,25.27
2017-05-01T14:06:00.697Z,25.27
2017-05-01T14:07:13.252Z,25.29
2017-05-01T14:08:26.040Z,25.09
2017-05-01T14:09:38.356Z,25.14
2017-05-01T14:10:50.658Z,25.02
2017-05-01T14:12:03.446Z,25.12
2017-05-01T14:13:15.753Z,25.16
2017-05-01T14:14:28.543Z,25.01
2017-05-01T14:15:40.847Z,25.01
2017-05-01T14:16:53.642Z,24.71
2017-05-01T14:18:06.682Z,24.75
2017-05-01T14:19:19.476Z,24.9
2017-05-01T14:20:31.795Z,24.99
2017-05-01T14:21:44.587Z,24.87
2017-05-01T14:22:57.149Z,24.9
2017-05-01T14:24:09.941Z,24.87
2017-05-01T14:25:21.780Z,24.77
2017-05-01T14:26:34.098Z,24.93
2017-05-01T14:27:46.892Z,24.89
2017-05-01T14:28:59.945Z,24.92
2017-05-01T14:30:12.266Z,24.97
2017-05-01T14:31:25.066Z,24.79
2017-05-01T14:32:37.872Z,24.71
2017-05-01T14:33:50.193Z,24.7
2017-05-01T14:35:02.994Z,24.75
2017-05-01T14:36:14.848Z,24.6
2017-05-01T14:37:27.648Z,24.41
2017-05-01T14:38:40.452Z,24.61
2017-05-01T14:40:07.329Z,24.7
2017-05-01T14:41:19.171Z,24.74
2017-05-01T14:42:31.974Z,24.84
2017-05-01T14:43:44.298Z,24.8
2017-05-01T14:44:57.110Z,24.74
2017-05-01T14:46:09.918Z,24.7
2017-05-01T14:47:22.721Z,24.79
2017-05-01T14:48:35.529Z,24.63
2017-05-01T14:49:48.584Z,24.61
2017-05-01T14:51:01.386Z,24.6
2017-05-01T14:52:13.716Z,24.45
2017-05-01T14:53:26.520Z,24.46
2017-05-01T14:54:39.324Z,24.34
2017-05-01T14:55:51.644Z,24.23
2017-05-01T14:57:03.964Z,24.26
2017-05-01T14:58:16.768Z,24.16
2017-05-01T14:59:29.570Z,24.16
2017-05-01T15:00:42.681Z,24.06
2017-05-01T15:01:55.483Z,23.86
2017-05-01T15:03:08.286Z,23.82
2017-05-01T15:04:20.591Z,23.77
2017-05-01T15:05:33.408Z,23.74
2017-05-01T15:06:46.498Z,23.64
2017-05-01T15:07:59.298Z,23.53
2017-05-01T15:09:12.099Z,23.63
2017-05-01T15:10:24.418Z,23.52
2017-05-01T15:11:37.471Z,23.45
2017-05-01T15:12:50.278Z,23.32
2017-05-01T15:14:03.077Z,23.31
2017-05-01T15:15:15.880Z,23.25
2017-05-01T15:16:28.200Z,23.22
2017-05-01T15:17:41.010Z,23.29
2017-05-01T15:18:53.816Z,23.21
2017-05-01T15:20:06.144Z,23.14
2017-05-01T15:21:18.467Z,23.15
2017-05-01T15:22:31.282Z,23.14
2017-05-01T15:23:44.085Z,22.97
2017-05-01T15:24:56.885Z,22.94
2017-05-01T15:26:09.205Z,23
2017-05-01T15:27:22.002Z,22.99
2017-05-01T15:28:34.333Z,23.01
2017-05-01T15:29:46.653Z,23.14
2017-05-01T15:30:59.449Z,23.15
2017-05-01T15:32:12.252Z,23.14
2017-05-01T15:33:38.644Z,23.18
2017-05-01T15:34:51.451Z,22.96
2017-05-01T15:36:04.302Z,23
2017-05-01T15:37:16.619Z,23
2017-05-01T15:38:29.417Z,22.97
2017-05-01T15:39:41.741Z,22.96
2017-05-01T15:40:54.547Z,22.97